Time;durP1;ratioP1;P1;durP2;ratioP2;P2;SDS_P1;SDS_P2;PMS_P1;PMS_P2;Temp;Humidity;BMP_temperature;BMP_pressure;BME280_temperature;BME280_humidity;BME280_pressure;Samples;Min_cycle;Max_cycle;Signal;HPM_P1;HPM_P2
2022/04/21 00:00:04;;;;;;;2.87;1.40;;;;;;;21.27;33.36;101313.06;5012283;28;20477;-66
2022/04/21 00:02:30;;;;;;;3.28;1.50;;;;;;;21.26;33.42;101307.88;5011959;28;20295;-65
2022/04/21 00:04:55;;;;;;;4.47;2.00;;;;;;;21.25;33.35;101306.19;5012372;28;20120;-65
2022/04/21 00:07:22;;;;;;;3.00;1.38;;;;;;;21.22;33.41;101302.03;5012338;28;20030;-65
2022/04/21 00:09:47;;;;;;;3.63;1.70;;;;;;;21.22;33.46;101296.72;5011718;28;20481;-65
2022/04/21 00:12:12;;;;;;;2.90;1.30;;;;;;;21.22;33.44;101298.50;5012341;28;20032;-65
2022/04/21 00:14:40;;;;;;;2.70;1.40;;;;;;;21.20;33.35;101301.28;5012506;28;20544;-65
2022/04/21 00:17:08;;;;;;;3.50;1.52;;;;;;;21.19;33.38;101303.13;5011394;28;20120;-65
2022/04/21 00:19:33;;;;;;;3.75;1.50;;;;;;;21.17;33.37;101291.81;5012835;28;20121;-66
2022/04/21 00:24:42;;;;;;;3.30;1.45;;;;;;;21.15;33.09;101301.69;5011667;28;20037;-66
2022/04/21 00:27:11;;;;;;;3.83;1.70;;;;;;;21.14;33.44;101296.53;5012135;28;20041;-65
2022/04/21 00:29:36;;;;;;;3.65;1.85;;;;;;;21.14;33.39;101305.34;5012395;28;20022;-65
2022/04/21 00:32:02;;;;;;;4.22;1.70;;;;;;;21.12;33.49;101295.81;5011346;28;20049;-65
2022/04/21 00:34:27;;;;;;;3.72;1.65;;;;;;;21.12;33.41;101293.19;5012433;28;20049;-65
2022/04/21 00:36:52;;;;;;;4.10;1.57;;;;;;;21.11;33.27;101302.09;5012248;28;20481;-65
2022/04/21 00:39:18;;;;;;;3.17;1.65;;;;;;;21.10;33.40;101293.31;5011652;28;20271;-65
2022/04/21 00:41:43;;;;;;;2.83;1.40;;;;;;;21.09;33.41;101296.09;5012245;28;20442;-65
2022/04/21 00:44:08;;;;;;;3.20;1.65;;;;;;;21.08;33.37;101289.09;5011974;28;20474;-65
2022/04/21 00:46:38;;;;;;;2.88;1.40;;;;;;;21.07;33.33;101290.09;5013393;28;20069;-65
2022/04/21 00:49:04;;;;;;;3.60;1.50;;;;;;;21.06;33.41;101299.00;5015876;28;20030;-64
2022/04/21 00:51:31;;;;;;;3.00;1.52;;;;;;;21.04;33.35;101285.88;5015721;28;20450;-65
2022/04/21 00:54:00;;;;;;;2.85;1.50;;;;;;;21.01;33.30;101289.66;5015013;28;20160;-65
2022/04/21 00:56:26;;;;;;;2.72;1.30;;;;;;;21.01;33.36;101284.34;5015823;28;20033;-65
2022/04/21 00:58:52;;;;;;;4.07;1.60;;;;;;;20.99;33.46;101288.94;5014661;28;20022;-66
2022/04/21 01:04:03;;;;;;;3.30;1.60;;;;;;;20.98;33.22;101284.63;5015439;28;20381;-66
2022/04/21 01:06:28;;;;;;;3.38;1.50;;;;;;;20.97;33.38;101276.81;5015036;28;20478;-65
2022/04/21 01:08:53;;;;;;;3.55;1.70;;;;;;;20.95;33.38;101284.88;5015326;28;20103;-65
2022/04/21 01:11:21;;;;;;;3.38;1.60;;;;;;;20.94;33.25;101285.84;5015230;28;20184;-66
2022/04/21 01:13:47;;;;;;;4.55;2.00;;;;;;;20.94;33.37;101282.38;5014676;28;20101;-66
2022/04/21 01:16:13;;;;;;;4.00;1.40;;;;;;;20.92;33.40;101293.09;5015444;28;20393;-66
2022/04/21 01:18:38;;;;;;;3.70;1.95;;;;;;;20.92;33.42;101297.53;5015546;28;20058;-65
2022/04/21 01:21:06;;;;;;;2.97;1.40;;;;;;;20.91;33.50;101296.72;5014620;28;20033;-66
2022/04/21 01:23:32;;;;;;;2.95;1.40;;;;;;;20.90;33.51;101291.53;5015510;28;20030;-65
2022/04/21 01:25:58;;;;;;;3.22;1.55;;;;;;;20.89;33.29;101287.22;5015060;28;20068;-65
2022/04/21 01:28:25;;;;;;;2.75;1.60;;;;;;;20.87;33.43;101287.38;5014602;28;20382;-65
2022/04/21 01:30:54;;;;;;;3.40;1.70;;;;;;;20.85;33.50;101281.34;5015198;28;20117;-64
2022/04/21 01:33:19;;;;;;;3.20;1.77;;;;;;;20.86;33.33;101287.50;5015481;28;20417;-66
2022/04/21 01:35:44;;;;;;;3.30;1.33;;;;;;;20.83;33.40;101281.47;5014432;28;20021;-66
2022/04/21 01:41:09;;;;;;;3.05;1.70;;;;;;;20.83;33.46;101280.63;5014033;28;20032;-65
2022/04/21 01:43:37;;;;;;;3.03;1.60;;;;;;;20.82;33.31;101281.59;5015180;28;20401;-66
2022/04/21 01:46:06;;;;;;;4.47;1.70;;;;;;;20.81;33.36;101279.94;5014659;28;20026;-66
2022/04/21 01:48:40;;;;;;;3.45;1.50;;;;;;;20.79;33.30;101282.72;5014131;28;20064;-65
2022/04/21 01:51:09;;;;;;;3.10;1.65;;;;;;;20.79;33.39;101279.22;5014471;28;20069;-66
2022/04/21 01:53:34;;;;;;;4.00;1.50;;;;;;;20.78;33.43;101286.34;5014612;28;20104;-66
2022/04/21 01:55:59;;;;;;;2.90;1.58;;;;;;;20.77;33.47;101282.00;5013720;28;20375;-66
2022/04/21 01:58:28;;;;;;;3.65;1.70;;;;;;;20.77;33.50;101271.41;5014675;28;20026;-65
2022/04/21 02:00:53;;;;;;;3.90;1.60;;;;;;;20.75;33.42;101270.69;5014354;28;20029;-65
2022/04/21 02:03:19;;;;;;;3.20;1.70;;;;;;;20.74;33.45;101270.84;5013807;28;20036;-65
2022/04/21 02:05:44;;;;;;;4.68;1.80;;;;;;;20.73;33.24;101277.09;5014402;28;20045;-65
2022/04/21 02:08:09;;;;;;;3.63;1.80;;;;;;;20.72;33.57;101276.25;5014344;28;20037;-65
2022/04/21 02:10:35;;;;;;;3.85;1.60;;;;;;;20.73;33.33;101279.72;5013761;28;20061;-64
2022/04/21 02:13:00;;;;;;;2.95;1.67;;;;;;;20.71;33.51;101276.38;5014229;28;20180;-65
2022/04/21 02:15:26;;;;;;;4.03;1.83;;;;;;;20.71;33.39;101276.38;5014401;28;20030;-64
2022/04/21 02:17:51;;;;;;;3.08;1.55;;;;;;;20.69;33.51;101278.34;5013058;28;20042;-66
2022/04/21 02:20:17;;;;;;;3.22;1.48;;;;;;;20.69;33.36;101281.00;5014327;28;20169;-65
2022/04/21 02:22:44;;;;;;;3.17;1.52;;;;;;;20.68;33.39;101280.16;5014228;28;20022;-65
2022/04/21 02:25:10;;;;;;;3.42;1.65;;;;;;;20.68;33.30;101279.28;5012983;28;20033;-65
2022/04/21 02:27:37;;;;;;;3.53;1.60;;;;;;;20.65;33.14;101275.94;5014252;28;20069;-65
2022/04/21 02:30:04;;;;;;;3.88;1.70;;;;;;;20.64;33.32;101279.56;5012906;28;20030;-64
2022/04/21 02:32:29;;;;;;;3.75;1.70;;;;;;;20.64;33.39;101278.72;5013788;28;20048;-65
2022/04/21 02:34:55;;;;;;;3.83;1.60;;;;;;;20.63;33.30;101272.56;5013613;28;20022;-64
2022/04/21 02:37:21;;;;;;;3.58;1.70;;;;;;;20.63;33.35;101275.22;5013682;28;20363;-65
2022/04/21 02:39:47;;;;;;;4.03;1.63;;;;;;;20.62;33.51;101278.00;5014816;28;20050;-66
2022/04/21 02:42:12;;;;;;;5.25;1.75;;;;;;;20.63;33.32;101277.00;5014707;28;20057;-65
2022/04/21 02:44:59;;;;;;;3.40;1.93;;;;;;;20.61;33.41;101271.84;5013733;28;20034;-66
2022/04/21 02:47:27;;;;;;;4.03;1.83;;;;;;;20.60;33.25;101264.88;5013643;28;20470;-65
2022/04/21 02:49:53;;;;;;;3.50;1.55;;;;;;;20.60;33.37;101269.31;5013427;28;20025;-66
2022/04/21 02:52:19;;;;;;;3.53;1.60;;;;;;;20.58;33.49;101266.81;5013115;28;20022;-65
2022/04/21 02:57:30;;;;;;;3.13;1.52;;;;;;;20.58;33.32;101276.56;5013797;28;20117;-65
2022/04/21 03:00:01;;;;;;;3.63;1.80;;;;;;;20.57;33.23;101272.22;5012608;28;20026;-65
2022/04/21 03:02:27;;;;;;;4.43;1.75;;;;;;;20.55;33.44;101272.34;5013979;28;20034;-65
2022/04/21 03:04:53;;;;;;;4.97;2.00;;;;;;;20.56;33.47;101267.91;5013705;28;20424;-66
2022/04/21 03:07:23;;;;;;;3.30;1.60;;;;;;;20.53;33.33;101269.00;5013068;28;20018;-65
2022/04/21 03:09:54;;;;;;;3.45;1.77;;;;;;;20.53;33.48;101261.06;5013080;28;20440;-65
2022/04/21 03:12:22;;;;;;;3.30;1.50;;;;;;;20.52;33.54;101269.13;5012880;28;20393;-65
2022/04/21 03:14:49;;;;;;;4.68;1.80;;;;;;;20.51;33.32;101260.38;5013753;28;20026;-64
2022/04/21 03:17:14;;;;;;;3.30;1.77;;;;;;;20.50;33.52;101263.16;5013286;28;20520;-64
2022/04/21 03:19:40;;;;;;;3.80;2.00;;;;;;;20.50;33.28;101258.69;5013031;28;20049;-65
2022/04/21 03:24:52;;;;;;;3.78;1.88;;;;;;;20.48;33.53;101265.91;5013072;28;20357;-65
2022/04/21 03:27:20;;;;;;;3.27;1.50;;;;;;;20.48;33.34;101265.91;5012877;28;20026;-65
2022/04/21 03:29:45;;;;;;;3.15;1.80;;;;;;;20.46;33.27;101267.88;5013463;28;20095;-65
2022/04/21 03:32:13;;;;;;;3.72;1.80;;;;;;;20.45;33.49;101264.34;5013106;28;20093;-65
2022/04/21 03:34:42;;;;;;;2.85;1.33;;;;;;;20.44;33.36;101265.34;5012522;28;20030;-65
2022/04/21 03:37:10;;;;;;;3.58;2.00;;;;;;;20.43;33.55;101263.66;5012861;28;20026;-65
2022/04/21 03:39:36;;;;;;;3.35;1.85;;;;;;;20.43;33.25;101265.47;5013237;28;20021;-64
2022/04/21 03:42:05;;;;;;;3.25;1.83;;;;;;;20.43;33.35;101271.59;5012416;28;20029;-65
2022/04/21 03:44:31;;;;;;;3.10;1.60;;;;;;;20.42;33.29;101266.44;5013357;28;20025;-65
2022/04/21 03:47:12;;;;;;;2.90;1.50;;;;;;;20.41;33.52;101270.03;5012917;28;20386;-65
2022/04/21 03:49:37;;;;;;;3.72;1.80;;;;;;;20.40;33.36;101273.69;5012363;28;20029;-65
2022/04/21 03:52:21;;;;;;;4.05;1.80;;;;;;;20.40;33.28;101271.84;5012635;28;20026;-64
2022/04/21 03:54:52;;;;;;;3.27;1.60;;;;;;;20.38;33.31;101279.09;5012539;28;20104;-64
2022/04/21 03:57:18;;;;;;;3.40;1.70;;;;;;;20.37;33.33;101273.94;5013233;28;20274;-65
2022/04/21 03:59:43;;;;;;;3.92;1.90;;;;;;;20.36;33.25;101275.75;5013067;28;20026;-65
2022/04/21 04:02:10;;;;;;;3.40;1.80;;;;;;;20.34;33.48;101272.38;5011828;28;20052;-65
2022/04/21 04:04:37;;;;;;;3.20;1.65;;;;;;;20.34;33.39;101275.00;5012676;28;20394;-65
2022/04/21 04:12:31;;;;;;;4.15;1.90;;;;;;;20.31;33.25;101275.28;5012789;28;20037;-65
2022/04/21 04:14:57;;;;;;;3.60;1.83;;;;;;;20.32;33.37;101278.78;5012347;28;20320;-65
2022/04/21 04:17:22;;;;;;;3.30;1.60;;;;;;;20.29;33.07;101270.09;5011727;28;20046;-65
2022/04/21 04:19:50;;;;;;;4.33;1.63;;;;;;;20.28;33.13;101265.81;5012758;28;20041;-66
2022/04/21 04:22:16;;;;;;;4.45;1.67;;;;;;;20.29;33.20;101272.75;5016222;28;20267;-65
2022/04/21 04:24:43;;;;;;;2.67;1.40;;;;;;;20.27;33.30;101273.88;5015918;28;20036;-66
2022/04/21 04:27:08;;;;;;;3.28;1.63;;;;;;;20.27;33.34;101273.88;5016340;28;20160;-65
2022/04/21 04:29:37;;;;;;;3.73;2.00;;;;;;;20.25;33.42;101268.69;5016126;28;20386;-68
2022/04/21 04:32:03;;;;;;;3.95;1.67;;;;;;;20.26;33.46;101272.19;5016248;28;20033;-66
2022/04/21 04:34:28;;;;;;;3.92;1.80;;;;;;;20.25;33.33;101271.34;5016532;28;20026;-65
2022/04/21 04:36:53;;;;;;;3.78;1.80;;;;;;;20.24;33.47;101269.66;5015478;28;20030;-65
2022/04/21 04:39:19;;;;;;;3.83;1.70;;;;;;;20.24;33.22;101274.94;5016343;28;20489;-66
2022/04/21 04:44:28;;;;;;;3.58;1.77;;;;;;;20.23;33.26;101277.72;5015895;28;20033;-65
2022/04/21 04:46:55;;;;;;;3.55;1.83;;;;;;;20.22;33.25;101279.53;5016013;28;20030;-64
2022/04/21 04:49:20;;;;;;;3.10;1.70;;;;;;;20.23;33.40;101280.38;5016328;28;20030;-65
2022/04/21 04:51:45;;;;;;;4.22;1.90;;;;;;;20.22;33.46;101289.25;5015133;28;20129;-66
2022/04/21 04:54:13;;;;;;;3.85;1.70;;;;;;;20.22;33.39;101290.13;5015880;28;20045;-65
2022/04/21 04:56:43;;;;;;;3.42;1.80;;;;;;;20.22;33.31;101287.47;5015977;28;20030;-65
2022/04/21 04:59:09;;;;;;;4.40;1.77;;;;;;;20.21;33.34;101284.97;5015080;28;20030;-65
2022/04/21 05:01:41;;;;;;;3.30;1.55;;;;;;;20.21;33.28;101282.31;5016077;28;20034;-65
2022/04/21 05:04:16;;;;;;;4.95;2.08;;;;;;;20.20;33.25;101289.44;5015539;28;20457;-65
2022/04/21 05:06:52;;;;;;;3.40;1.70;;;;;;;20.19;33.20;101278.97;5015187;28;20108;-65
2022/04/21 05:09:19;;;;;;;3.53;1.70;;;;;;;20.18;33.15;101275.47;5015634;28;20034;-65
2022/04/21 05:11:48;;;;;;;3.65;1.70;;;;;;;20.19;33.24;101281.63;5015855;28;20034;-66
2022/04/21 05:14:14;;;;;;;3.85;1.90;;;;;;;20.18;33.21;101283.41;5015695;28;20117;-66
2022/04/21 05:16:40;;;;;;;3.58;1.70;;;;;;;20.19;33.24;101282.44;5015472;28;20053;-65
2022/04/21 05:19:09;;;;;;;3.60;1.73;;;;;;;20.23;33.26;101277.72;5014674;28;20025;-69
2022/04/21 05:21:37;;;;;;;3.15;1.65;;;;;;;20.28;33.38;101280.81;5015492;28;20026;-70
2022/04/21 05:24:03;;;;;;;3.42;1.60;;;;;;;20.29;33.57;101280.69;5015097;28;20359;-67
2022/04/21 05:26:29;;;;;;;3.00;1.60;;;;;;;20.35;33.46;101284.66;5014937;28;20022;-68
2022/04/21 05:28:57;;;;;;;3.00;1.45;;;;;;;20.38;33.82;101281.75;5015286;28;20036;-62
2022/04/21 05:31:26;;;;;;;3.50;1.60;;;;;;;20.42;33.49;101277.03;5014816;28;20385;-65
2022/04/21 05:33:54;;;;;;;5.00;1.67;;;;;;;20.45;33.82;101285.53;5014380;28;20022;-65
2022/04/21 05:36:21;;;;;;;2.95;1.60;;;;;;;20.47;33.96;101278.31;5015050;28;20021;-65
2022/04/21 05:38:47;;;;;;;2.80;1.45;;;;;;;20.52;33.75;101277.09;5015349;28;20113;-65
2022/04/21 05:41:14;;;;;;;3.17;1.60;;;;;;;20.55;34.00;101280.31;5014352;28;20063;-64
2022/04/21 05:43:44;;;;;;;4.90;2.00;;;;;;;20.58;33.78;101276.56;5015245;28;20050;-64
2022/04/21 05:46:11;;;;;;;2.80;1.48;;;;;;;20.59;33.87;101273.78;5015079;28;20147;-65
2022/04/21 05:48:37;;;;;;;3.97;1.45;;;;;;;20.58;34.36;101252.72;5014286;28;20079;-65
2022/04/21 05:51:04;;;;;;;4.00;1.58;;;;;;;20.58;33.77;101282.69;5014433;28;20413;-65
2022/04/21 05:53:36;;;;;;;3.60;1.50;;;;;;;20.61;34.15;101278.94;5015283;28;20030;-64
2022/04/21 05:56:06;;;;;;;3.05;1.42;;;;;;;20.64;34.19;101279.56;5013819;28;20030;-64
2022/04/21 05:58:32;;;;;;;4.30;1.92;;;;;;;20.70;34.04;101285.31;5014928;28;20048;-63
2022/04/21 06:00:59;;;;;;;3.08;1.50;;;;;;;20.72;34.12;101275.44;5014490;28;20018;-65
2022/04/21 06:03:25;;;;;;;3.90;1.58;;;;;;;20.75;33.51;101276.00;5014218;28;20464;-65
2022/04/21 06:05:51;;;;;;;4.28;1.65;;;;;;;20.80;33.89;101280.91;5014328;28;20100;-65
2022/04/21 06:08:16;;;;;;;4.20;1.50;;;;;;;20.81;33.91;101278.13;5013780;28;20116;-64
2022/04/21 06:10:41;;;;;;;3.15;1.45;;;;;;;20.83;34.11;101283.28;5014592;28;20033;-64
2022/04/21 06:13:09;;;;;;;4.63;1.50;;;;;;;20.84;34.29;101284.97;5014242;28;20025;-65
2022/04/21 06:15:34;;;;;;;5.25;1.70;;;;;;;20.83;34.29;101278.81;5013759;28;20018;-65
2022/04/21 06:18:00;;;;;;;5.00;1.98;;;;;;;20.86;34.29;101276.91;5013954;28;20139;-66
2022/04/21 06:20:27;;;;;;;4.05;1.70;;;;;;;20.88;34.19;101272.31;5014631;28;20018;-65
2022/04/21 06:22:53;;;;;;;6.43;1.42;;;;;;;20.90;34.33;101275.66;5013403;28;20057;-64
2022/04/21 06:25:18;;;;;;;3.15;1.48;;;;;;;20.95;34.26;101268.13;5014398;28;20084;-66
2022/04/21 06:27:44;;;;;;;4.30;1.42;;;;;;;20.98;34.21;101266.06;5014330;28;20025;-64
2022/04/21 06:30:10;;;;;;;2.85;1.38;;;;;;;20.98;34.24;101266.06;5013120;28;20053;-64
2022/04/21 06:32:35;;;;;;;3.95;2.15;;;;;;;21.03;33.84;101265.69;5014390;28;20018;-67
2022/04/21 06:35:00;;;;;;;3.35;1.45;;;;;;;21.04;34.43;101266.50;5015216;28;20025;-67
2022/04/21 06:37:26;;;;;;;4.63;1.50;;;;;;;21.08;34.21;101270.56;5016109;28;20042;-69
2022/04/21 06:39:54;;;;;;;6.57;1.90;;;;;;;21.13;34.17;101266.53;5014925;28;20025;-66
2022/04/21 06:42:19;;;;;;;3.83;1.58;;;;;;;21.23;34.09;101263.09;5014691;28;20049;-63
2022/04/21 06:50:12;;;;;;;4.40;1.55;;;;;;;21.43;33.80;101256.88;5013804;28;20497;-65
2022/04/21 06:52:37;;;;;;;3.95;1.50;;;;;;;21.45;33.59;101254.91;5013542;28;20030;-67
2022/04/21 06:55:04;;;;;;;3.58;1.50;;;;;;;21.48;34.06;101259.09;5013653;28;20105;-63
2022/04/21 06:57:29;;;;;;;3.80;1.67;;;;;;;21.48;34.12;101253.81;5013174;28;20029;-66
2022/04/21 06:59:55;;;;;;;4.00;1.75;;;;;;;21.48;34.06;101257.31;5013824;28;20032;-67
2022/04/21 07:02:32;;;;;;;4.45;1.48;;;;;;;21.50;34.10;101260.66;5013496;28;20038;-66
2022/04/21 07:05:16;;;;;;;5.93;1.85;;;;;;;21.51;34.02;101257.03;5012986;28;20026;-68
2022/04/21 07:07:42;;;;;;;3.70;1.33;;;;;;;21.52;34.15;101261.38;5013860;28;20025;-65
2022/04/21 07:10:11;;;;;;;2.55;1.35;;;;;;;21.53;34.09;101257.75;5013345;28;20611;-72
2022/04/21 07:12:36;;;;;;;3.97;1.30;;;;;;;21.54;34.21;101258.59;5012837;28;20374;-62
2022/04/21 07:15:07;;;;;;;5.00;1.70;;;;;;;21.54;34.08;101258.59;5013332;28;20022;-64
2022/04/21 07:17:33;;;;;;;4.32;1.40;;;;;;;21.56;34.24;101256.63;5013405;28;20070;-64
2022/04/21 07:20:04;;;;;;;3.30;1.60;;;;;;;21.55;34.08;101258.47;5012548;28;20026;-63
2022/04/21 07:22:29;;;;;;;3.35;1.50;;;;;;;21.56;34.33;101257.47;5013519;28;20057;-67
2022/04/21 07:24:56;;;;;;;3.25;1.60;;;;;;;21.57;34.34;101258.31;5013352;28;20061;-67
2022/04/21 07:27:22;;;;;;;3.30;1.50;;;;;;;21.55;34.31;101250.50;5012852;28;20109;-65
2022/04/21 07:29:48;;;;;;;4.53;2.05;;;;;;;21.56;34.37;101256.63;5013540;28;20026;-65
2022/04/21 07:32:14;;;;;;;4.55;1.95;;;;;;;21.58;34.41;101259.16;5013432;28;20036;-64
2022/04/21 07:34:39;;;;;;;3.67;1.85;;;;;;;21.58;34.34;101265.28;5015930;28;20034;-66
2022/04/21 07:37:07;;;;;;;3.22;1.50;;;;;;;21.59;34.27;101264.31;5016943;28;20032;-67
2022/04/21 07:39:32;;;;;;;3.25;1.30;;;;;;;21.59;34.49;101266.09;5017473;28;20036;-64
2022/04/21 07:41:59;;;;;;;3.88;1.40;;;;;;;21.59;34.75;101266.09;5017824;28;20104;-66
2022/04/21 07:44:26;;;;;;;3.80;1.50;;;;;;;21.61;34.66;101266.84;5017345;28;20109;-64
2022/04/21 07:46:52;;;;;;;3.55;1.50;;;;;;;21.62;34.78;101271.13;5012555;28;20046;-67
2022/04/21 07:54:45;;;;;;;4.18;1.95;;;;;;;21.62;34.59;101256.09;5012618;28;20057;-65
2022/04/21 07:57:10;;;;;;;4.17;1.70;;;;;;;21.64;34.79;101259.44;5012841;28;20474;-64
2022/04/21 07:59:36;;;;;;;5.47;1.73;;;;;;;21.61;35.01;101254.41;5013174;28;20354;-65
2022/04/21 08:02:06;;;;;;;3.58;1.60;;;;;;;21.61;34.91;101261.53;5012013;28;20029;-64
2022/04/21 08:04:32;;;;;;;3.85;1.60;;;;;;;21.60;35.01;101249.22;5013179;28;20117;-64
2022/04/21 08:06:57;;;;;;;2.90;1.50;;;;;;;21.60;34.90;101260.66;5012771;28;20121;-64
2022/04/21 08:09:26;;;;;;;3.40;1.50;;;;;;;21.60;34.69;101260.66;5012172;28;20279;-65
2022/04/21 08:11:51;;;;;;;4.85;1.60;;;;;;;21.62;34.88;101255.22;5012424;28;20037;-65
2022/04/21 08:14:20;;;;;;;3.45;1.60;;;;;;;21.61;34.99;101253.56;5012880;28;20108;-64
2022/04/21 08:16:45;;;;;;;2.53;1.15;;;;;;;21.61;35.20;101256.22;5011757;28;20050;-63
2022/04/21 08:19:11;;;;;;;6.10;1.70;;;;;;;21.60;35.22;101255.38;5012715;28;20065;-68
2022/04/21 08:21:37;;;;;;;4.50;1.50;;;;;;;21.61;35.22;101265.00;5012887;28;20021;-63
2022/04/21 08:32:33;;;;;;;3.78;1.70;;;;;;;21.59;34.63;101264.31;5012331;28;20018;-64
2022/04/21 08:32:36;;;;;;;4.70;1.60;;;;;;;21.60;35.09;101265.16;5012615;28;20124;-66
2022/04/21 08:35:05;;;;;;;4.78;1.75;;;;;;;21.60;35.37;101265.97;5012483;28;20041;-63
2022/04/21 08:37:33;;;;;;;3.38;1.50;;;;;;;21.67;35.17;101264.47;5016390;28;20022;-66
2022/04/21 08:40:00;;;;;;;4.65;1.52;;;;;;;21.77;34.96;101268.94;5016395;28;20022;-65
2022/04/21 08:42:29;;;;;;;6.43;1.80;;;;;;;21.76;34.07;101260.13;5016062;28;20414;-64
2022/04/21 08:44:56;;;;;;;6.82;1.60;;;;;;;21.78;34.54;101267.94;5012836;28;20030;-64
2022/04/21 08:47:24;;;;;;;3.42;1.90;;;;;;;21.75;33.47;101261.13;5014436;28;20034;-65
2022/04/21 08:49:52;;;;;;;3.60;1.77;;;;;;;21.73;34.49;101258.63;5011704;28;20163;-66
2022/04/21 08:52:19;;;;;;;3.55;1.67;;;;;;;21.73;34.64;101258.63;5012711;28;20036;-65
2022/04/21 08:54:46;;;;;;;4.75;1.42;;;;;;;21.73;34.82;101255.97;5012860;28;20026;-65
2022/04/21 08:57:12;;;;;;;4.53;1.48;;;;;;;21.71;34.97;101254.41;5011436;28;20544;-67
2022/04/21 08:59:40;;;;;;;3.20;1.33;;;;;;;21.72;34.99;101253.44;5012666;28;20026;-70
2022/04/21 09:02:06;;;;;;;4.90;1.65;;;;;;;21.70;35.32;101252.75;5012273;28;20045;-66
2022/04/21 09:04:31;;;;;;;3.38;1.40;;;;;;;21.72;35.15;101251.63;5011534;28;20037;-64
2022/04/21 09:07:14;;;;;;;3.83;1.50;;;;;;;21.74;35.29;101249.66;5013179;28;20022;-63
2022/04/21 09:09:40;;;;;;;4.38;1.60;;;;;;;21.78;35.30;101252.03;5016004;28;20030;-66
2022/04/21 09:12:08;;;;;;;5.65;1.85;;;;;;;21.77;35.48;101240.59;5014964;28;20034;-64
2022/04/21 09:14:34;;;;;;;4.85;1.50;;;;;;;21.80;35.36;101242.16;5015873;28;20022;-65
2022/04/21 09:17:05;;;;;;;3.50;1.30;;;;;;;21.78;35.58;101236.97;5015157;28;20045;-65
2022/04/21 09:19:30;;;;;;;4.03;1.38;;;;;;;21.77;35.69;101237.94;5015247;28;20030;-65
2022/04/21 09:21:56;;;;;;;5.13;1.40;;;;;;;21.78;35.53;101236.97;5015534;28;20014;-65
2022/04/21 09:24:24;;;;;;;2.92;1.40;;;;;;;21.76;35.70;101224.81;5015806;28;20105;-64
2022/04/21 09:26:50;;;;;;;4.15;1.30;;;;;;;21.76;35.72;101224.81;5014824;28;20026;-65
2022/04/21 09:29:33;;;;;;;3.85;1.48;;;;;;;21.76;35.67;101225.63;5015577;28;20053;-65
2022/04/21 09:32:02;;;;;;;7.15;1.40;;;;;;;21.77;35.56;101215.88;5015405;28;20034;-65
2022/04/21 09:34:29;;;;;;;5.50;1.40;;;;;;;21.78;35.75;101222.84;5015625;28;20084;-65
2022/04/21 09:36:57;;;;;;;4.65;1.50;;;;;;;21.78;35.88;101215.75;5015371;28;20029;-65
2022/04/21 09:39:23;;;;;;;5.22;1.63;;;;;;;21.77;35.82;101222.03;5014689;28;20025;-68
2022/04/21 09:41:53;;;;;;;4.47;1.70;;;;;;;21.77;35.93;101215.88;5015122;28;20028;-68
2022/04/21 09:47:04;;;;;;;;;;;;;;;21.76;36.05;101224.81;5014901;28;20488;-68
2022/04/21 09:49:44;;;;;;;3.25;1.30;;;;;;;21.77;36.19;101223.84;5015275;28;19967;-66
2022/04/21 09:52:10;;;;;;;5.95;1.23;;;;;;;21.76;36.14;101225.63;5014690;28;20060;-64
2022/04/21 09:54:36;;;;;;;6.25;1.75;;;;;;;21.77;36.12;101229.16;5015027;28;20033;-64
2022/04/21 09:57:02;;;;;;;5.88;1.40;;;;;;;21.77;36.26;101221.19;5015006;28;20029;-66
2022/04/21 09:59:28;;;;;;;3.90;1.45;;;;;;;21.76;36.11;101215.03;5015167;28;20033;-67
2022/04/21 10:01:54;;;;;;;5.30;1.40;;;;;;;21.76;36.49;101211.56;5014016;28;20374;-65
2022/04/21 10:04:20;;;;;;;4.32;1.30;;;;;;;21.76;36.42;101216.84;5014928;28;20355;-63
2022/04/21 10:06:48;;;;;;;4.20;1.23;;;;;;;21.77;36.27;101215.88;5014922;28;20029;-64
2022/04/21 10:09:18;;;;;;;4.00;1.42;;;;;;;21.77;36.34;101207.94;5014018;28;20022;-64
2022/04/21 10:11:43;;;;;;;7.63;2.20;;;;;;;21.74;36.41;101212.50;5015055;28;20073;-60
2022/04/21 10:14:12;;;;;;;8.23;3.30;;;;;;;21.73;36.63;101207.38;5014575;28;20055;-62
2022/04/21 10:16:39;;;;;;;10.40;6.47;;;;;;;21.72;36.23;101201.22;5014328;28;20406;-63
2022/04/21 10:19:04;;;;;;;15.07;11.45;;;;;;;21.71;36.67;101204.88;5013217;28;20030;-63
2022/04/21 10:21:51;;;;;;;20.85;13.52;;;;;;;21.71;36.81;101196.06;5013747;28;20115;-65
2022/04/21 10:24:27;;;;;;;16.52;14.82;;;;;;;21.71;37.02;101206.66;5014659;28;20034;-63
2022/04/21 10:26:53;;;;;;;19.30;17.27;;;;;;;21.69;37.13;101192.72;5014166;28;20385;-64
2022/04/21 10:29:23;;;;;;;23.25;17.85;;;;;;;21.71;37.07;101196.06;5013811;28;20022;-63
2022/04/21 10:31:51;;;;;;;21.58;19.27;;;;;;;21.70;36.50;101189.91;5014102;28;20132;-63
2022/04/21 10:34:25;;;;;;;24.20;19.00;;;;;;;21.70;36.63;101189.09;5014185;28;20034;-64
2022/04/21 10:37:05;;;;;;;19.60;17.70;;;;;;;21.70;36.63;101184.63;5013416;28;20032;-65
2022/04/21 10:39:30;;;;;;;22.13;18.70;;;;;;;21.69;36.77;101182.09;5014492;28;20117;-63
2022/04/21 10:42:18;;;;;;;20.00;17.50;;;;;;;21.69;36.39;101176.78;5014008;28;20053;-67
2022/04/21 10:44:51;;;;;;;19.13;15.95;;;;;;;21.70;36.51;101178.47;5013839;28;20157;-66
2022/04/21 10:47:38;;;;;;;18.27;16.58;;;;;;;21.68;36.57;101178.63;5014340;28;20026;-65
2022/04/21 10:50:18;;;;;;;19.27;17.27;;;;;;;21.68;37.02;101170.66;5012879;28;20462;-65
2022/04/21 10:58:35;;;;;;;18.35;15.82;;;;;;;21.65;36.57;101159.47;5013643;28;20040;-66
2022/04/21 11:01:11;;;;;;;17.77;14.60;;;;;;;21.63;36.61;101161.44;5013739;28;20108;-65
2022/04/21 11:03:38;;;;;;;15.75;14.15;;;;;;;21.63;36.74;101162.25;5013202;28;20054;-65
2022/04/21 11:06:08;;;;;;;15.07;13.57;;;;;;;21.64;36.67;101163.13;5013744;28;20030;-66
2022/04/21 11:08:34;;;;;;;16.38;14.68;;;;;;;21.63;36.39;101159.63;5013835;28;20033;-66
2022/04/21 11:10:59;;;;;;;16.40;13.68;;;;;;;21.63;36.46;101154.31;5012559;28;20034;-66
2022/04/21 11:13:39;;;;;;;16.23;13.88;;;;;;;21.64;36.77;101160.47;5013883;28;20034;-65
2022/04/21 11:16:05;;;;;;;15.18;13.57;;;;;;;21.62;36.61;101152.66;5013331;28;20040;-66
2022/04/21 11:18:31;;;;;;;16.15;13.25;;;;;;;21.62;36.72;101142.03;5012677;28;20053;-66
2022/04/21 11:21:27;;;;;;;16.05;12.68;;;;;;;21.62;36.57;101143.84;5013473;28;20351;-66
2022/04/21 11:23:53;;;;;;;14.02;12.52;;;;;;;21.60;36.54;101133.38;5013462;28;20033;-66
2022/04/21 11:26:25;;;;;;;14.30;12.80;;;;;;;21.61;36.51;101127.09;5012673;28;20367;-65
2022/04/21 11:28:51;;;;;;;12.82;11.52;;;;;;;21.60;36.69;101121.94;5013344;28;20029;-66
2022/04/21 11:31:21;;;;;;;12.77;11.38;;;;;;;21.61;36.47;101128.94;5013158;28;20367;-66
2022/04/21 11:33:47;;;;;;;12.32;11.13;;;;;;;21.60;36.40;101124.59;5012782;28;20109;-66
2022/04/21 11:36:14;;;;;;;12.13;10.82;;;;;;;21.60;36.53;101121.94;5013104;28;20131;-65
2022/04/21 11:38:44;;;;;;;13.95;10.40;;;;;;;21.60;36.55;101117.47;5012458;28;20018;-65
2022/04/21 11:41:11;;;;;;;11.20;10.07;;;;;;;21.59;36.56;101110.50;5013159;28;20018;-66
2022/04/21 11:43:44;;;;;;;11.55;10.35;;;;;;;21.59;36.36;101114.94;5013195;28;20480;-65
2022/04/21 11:46:12;;;;;;;11.48;9.95;;;;;;;21.59;36.52;101113.16;5012251;28;20381;-65
2022/04/21 11:48:40;;;;;;;12.35;9.60;;;;;;;21.59;36.54;101118.47;5013182;28;20466;-66
2022/04/21 11:51:06;;;;;;;11.27;9.68;;;;;;;21.58;36.43;101100.88;5012607;28;20087;-66
2022/04/21 11:53:37;;;;;;;10.45;8.80;;;;;;;21.58;36.36;101108.81;5012538;28;20108;-66
2022/04/21 11:56:08;;;;;;;9.45;8.45;;;;;;;21.59;36.42;101110.50;5012993;28;20030;-66
2022/04/21 11:58:40;;;;;;;10.85;8.50;;;;;;;21.59;36.33;101118.47;5013077;28;20084;-66
2022/04/21 12:06:56;;;;;;;9.63;7.50;;;;;;;21.60;36.06;101106.03;5012126;28;20080;-67
2022/04/21 12:09:23;;;;;;;10.18;7.20;;;;;;;21.61;36.08;101110.34;5012995;28;20029;-68
2022/04/21 12:11:54;;;;;;;8.55;6.68;;;;;;;21.61;35.82;101100.59;5012629;28;20433;-65
2022/04/21 12:14:20;;;;;;;8.73;6.72;;;;;;;21.62;35.73;101102.25;5012239;28;20026;-67
2022/04/21 12:16:49;;;;;;;9.35;6.38;;;;;;;21.64;35.65;101087.03;5012634;28;20092;-67
2022/04/21 12:19:17;;;;;;;7.40;6.05;;;;;;;21.64;35.51;101089.69;5013099;28;20030;-65